Time;durP1;ratioP1;P1;durP2;ratioP2;P2;SDS_P1;SDS_P2;PMS_P1;PMS_P2;Temp;Humidity;BMP_temperature;BMP_pressure;BME280_temperature;BME280_humidity;BME280_pressure;Samples;Min_cycle;Max_cycle;Signal;HPM_P1;HPM_P2
2022/01/02 00:00:09;;;;;;;10.37;7.73;;;9.90;99.90;;;;;;4984379;28;20786;-68
2022/01/02 00:02:37;;;;;;;11.37;7.70;;;9.90;99.90;;;;;;4982157;28;20456;-69
2022/01/02 00:05:08;;;;;;;12.13;7.33;;;9.90;99.90;;;;;;4982605;28;20449;-69
2022/01/02 00:07:40;;;;;;;15.30;7.40;;;9.90;99.90;;;;;;4983976;28;20516;-69
2022/01/02 00:10:08;;;;;;;8.80;6.43;;;9.70;99.90;;;;;;4979886;28;20504;-69
2022/01/02 00:12:35;;;;;;;13.13;8.30;;;9.60;99.90;;;;;;4984290;28;20844;-69
2022/01/02 00:15:05;;;;;;;8.77;7.87;;;9.50;99.90;;;;;;4983419;28;20519;-69
2022/01/02 00:17:31;;;;;;;8.20;6.90;;;9.50;99.90;;;;;;4981805;28;20527;-69
2022/01/02 00:20:01;;;;;;;10.90;7.50;;;9.60;99.90;;;;;;4980728;28;20437;-70
2022/01/02 00:22:35;;;;;;;12.20;7.47;;;9.60;99.90;;;;;;4981675;28;20536;-69
2022/01/02 00:25:06;;;;;;;11.63;8.07;;;9.50;99.90;;;;;;4979919;28;20568;-69
2022/01/02 00:27:34;;;;;;;11.23;6.90;;;9.30;99.90;;;;;;4982287;28;20448;-69
2022/01/02 00:30:04;;;;;;;8.30;7.07;;;9.20;99.90;;;;;;4980289;28;20484;-69
2022/01/02 00:32:32;;;;;;;12.07;7.97;;;9.20;99.90;;;;;;4982503;28;20444;-69
2022/01/02 00:35:00;;;;;;;10.00;8.10;;;9.50;99.90;;;;;;4978286;28;20856;-69
2022/01/02 00:37:26;;;;;;;11.60;7.57;;;9.30;99.90;;;;;;4981758;28;20440;-69
2022/01/02 00:39:51;;;;;;;8.87;7.37;;;9.40;99.90;;;;;;4982434;28;20437;-69
2022/01/02 00:42:30;;;;;;;12.37;8.47;;;9.30;99.90;;;;;;4981920;28;20867;-69
2022/01/02 00:45:21;;;;;;;10.97;9.10;;;9.20;99.90;;;;;;4980465;28;20205;-69
2022/01/02 00:48:04;;;;;;;12.90;8.47;;;9.30;99.90;;;;;;4982724;28;20883;-70
2022/01/02 00:50:38;;;;;;;10.93;8.57;;;9.30;99.90;;;;;;4978985;28;20475;-68
2022/01/02 00:53:09;;;;;;;13.17;8.27;;;9.50;99.90;;;;;;4982856;28;20429;-68
2022/01/02 00:55:35;;;;;;;11.23;8.43;;;9.40;99.90;;;;;;4981736;28;20487;-69
2022/01/02 00:58:05;;;;;;;12.23;8.30;;;9.50;99.90;;;;;;4985100;28;20538;-69
2022/01/02 01:00:32;;;;;;;10.47;8.60;;;9.60;99.90;;;;;;4982577;28;20734;-69
2022/01/02 01:03:00;;;;;;;9.93;8.37;;;9.60;99.90;;;;;;4980490;28;20440;-69
2022/01/02 01:05:31;;;;;;;12.10;8.73;;;9.70;99.90;;;;;;4980982;28;20468;-69
2022/01/02 01:08:02;;;;;;;9.90;8.33;;;9.50;99.90;;;;;;4981232;28;20892;-69
2022/01/02 01:10:33;;;;;;;10.27;9.00;;;9.50;99.90;;;;;;4980861;28;20479;-68
2022/01/02 01:13:01;;;;;;;12.57;8.07;;;9.40;99.90;;;;;;4980661;28;20934;-69
2022/01/02 01:15:29;;;;;;;10.80;7.57;;;9.40;99.90;;;;;;4978369;28;20442;-69
2022/01/02 01:17:57;;;;;;;13.07;9.93;;;9.50;99.90;;;;;;4980241;28;20443;-69
2022/01/02 01:20:25;;;;;;;14.07;9.87;;;9.60;99.90;;;;;;4982246;28;20440;-69
2022/01/02 01:22:50;;;;;;;11.57;8.40;;;9.60;99.90;;;;;;4981706;28;20526;-69
2022/01/02 01:25:18;;;;;;;12.53;9.33;;;9.50;99.90;;;;;;4982000;28;20954;-69
2022/01/02 01:27:45;;;;;;;11.30;10.10;;;9.40;99.90;;;;;;4981845;28;20192;-69
2022/01/02 01:30:12;;;;;;;12.37;9.50;;;9.50;99.90;;;;;;4980997;28;20748;-69
2022/01/02 01:32:38;;;;;;;12.17;9.50;;;9.50;99.90;;;;;;4979891;28;20429;-70
2022/01/02 01:35:05;;;;;;;12.00;9.80;;;9.50;99.90;;;;;;4984113;28;20456;-69
2022/01/02 01:37:31;;;;;;;11.43;8.30;;;9.40;99.90;;;;;;4977233;28;20526;-69
2022/01/02 01:39:57;;;;;;;12.33;8.20;;;9.50;99.90;;;;;;4982339;28;20464;-69
2022/01/02 01:42:37;;;;;;;11.40;8.30;;;9.60;99.90;;;;;;4962272;28;20449;-69
2022/01/02 01:47:48;;;;;;;10.87;9.00;;;9.30;99.90;;;;;;4985866;28;20442;-69
2022/01/02 01:50:15;;;;;;;9.80;7.50;;;9.20;99.90;;;;;;4984653;28;20476;-69
2022/01/02 01:52:41;;;;;;;11.93;8.40;;;9.20;99.90;;;;;;4984608;28;20928;-70
2022/01/02 01:55:08;;;;;;;9.70;8.73;;;9.10;99.90;;;;;;4983663;28;20592;-70
2022/01/02 01:57:34;;;;;;;10.63;9.00;;;9.10;99.90;;;;;;4980730;28;20822;-70
2022/01/02 02:00:04;;;;;;;12.07;9.00;;;9.20;99.90;;;;;;4981321;28;20531;-69
2022/01/02 02:02:30;;;;;;;12.37;8.77;;;9.30;99.90;;;;;;4981982;28;20476;-70
2022/01/02 02:04:56;;;;;;;12.53;9.33;;;9.40;99.90;;;;;;4984842;28;20461;-69
2022/01/02 02:07:27;;;;;;;10.37;8.40;;;9.40;99.90;;;;;;4982261;28;20445;-69
2022/01/02 02:12:22;;;;;;;13.80;9.97;;;9.20;99.90;;;;;;4985035;28;20437;-69
2022/01/02 02:14:47;;;;;;;16.23;10.27;;;9.20;99.90;;;;;;4985055;28;20468;-70
2022/01/02 02:17:13;;;;;;;29.97;12.90;;;9.30;99.90;;;;;;4982626;28;20436;-70
2022/01/02 02:19:39;;;;;;;14.90;10.70;;;9.30;99.90;;;;;;4983940;28;20190;-69
2022/01/02 02:22:06;;;;;;;13.80;10.53;;;9.30;99.90;;;;;;4982469;28;20190;-69
2022/01/02 02:24:32;;;;;;;18.73;11.70;;;9.30;99.90;;;;;;4985546;28;20245;-69
2022/01/02 02:26:58;;;;;;;17.93;10.87;;;9.00;99.90;;;;;;4983779;28;20980;-69
2022/01/02 02:29:23;;;;;;;22.03;10.33;;;8.60;99.90;;;;;;4965325;28;20218;-69
2022/01/02 02:31:53;;;;;;;15.07;10.20;;;8.70;99.90;;;;;;4983227;28;20186;-69
2022/01/02 02:34:19;;;;;;;16.00;10.90;;;8.50;99.90;;;;;;4983594;28;20181;-69
2022/01/02 02:36:44;;;;;;;14.10;9.90;;;8.70;99.90;;;;;;4985464;28;20438;-70
2022/01/02 02:39:10;;;;;;;12.97;9.90;;;8.60;99.90;;;;;;4984358;28;20193;-69
2022/01/02 02:41:37;;;;;;;13.70;10.37;;;8.50;99.90;;;;;;4983302;28;20186;-69
2022/01/02 02:44:16;;;;;;;12.67;10.20;;;8.50;99.90;;;;;;4983718;28;20186;-69
2022/01/02 02:49:30;;;;;;;13.23;9.83;;;8.20;99.90;;;;;;4970315;28;20496;-69
2022/01/02 02:52:05;;;;;;;12.10;10.13;;;8.00;99.90;;;;;;4979608;28;20857;-67
2022/01/02 02:54:32;;;;;;;11.67;9.07;;;8.10;99.90;;;;;;4984140;28;20205;-68
2022/01/02 02:57:01;;;;;;;14.07;9.90;;;8.30;99.90;;;;;;4980634;28;20528;-68
2022/01/02 02:59:32;;;;;;;13.37;8.97;;;8.20;99.90;;;;;;4985680;28;20441;-69
2022/01/02 03:01:59;;;;;;;11.20;8.40;;;8.40;99.90;;;;;;4984129;28;20448;-69
2022/01/02 03:04:25;;;;;;;11.87;7.70;;;8.10;99.90;;;;;;4983189;28;20429;-68
2022/01/02 03:06:51;;;;;;;11.33;7.83;;;8.00;99.90;;;;;;4983976;28;21072;-69
2022/01/02 03:09:35;;;;;;;8.90;7.10;;;8.20;99.90;;;;;;4982576;28;20843;-69
2022/01/02 03:12:01;;;;;;;8.43;6.80;;;8.40;99.90;;;;;;4979957;28;20808;-69
2022/01/02 03:14:26;;;;;;;11.00;7.10;;;8.60;99.90;;;;;;4983215;28;20447;-69
2022/01/02 03:16:52;;;;;;;8.60;6.40;;;8.70;99.90;;;;;;4984564;28;20748;-69
2022/01/02 03:19:17;;;;;;;9.07;7.33;;;8.60;99.90;;;;;;4985009;28;20204;-69
2022/01/02 03:21:43;;;;;;;7.73;6.37;;;8.50;99.90;;;;;;4982267;28;20190;-69
2022/01/02 03:24:09;;;;;;;9.63;7.03;;;8.50;99.90;;;;;;4982473;28;20197;-69
2022/01/02 03:26:34;;;;;;;11.73;8.60;;;8.40;99.90;;;;;;4980639;28;20193;-69
2022/01/02 03:29:00;;;;;;;10.50;8.60;;;8.60;99.90;;;;;;4984141;28;20618;-69
2022/01/02 03:31:26;;;;;;;10.20;8.70;;;8.70;99.90;;;;;;4981354;28;20210;-69
2022/01/02 03:33:52;;;;;;;10.37;8.17;;;8.70;99.90;;;;;;4984204;28;20236;-69
2022/01/02 03:36:18;;;;;;;10.97;8.90;;;8.60;99.90;;;;;;4982926;28;20464;-69
2022/01/02 03:38:44;;;;;;;9.33;8.00;;;8.40;99.90;;;;;;4983224;28;20966;-69
2022/01/02 03:41:10;;;;;;;11.37;7.97;;;8.40;99.90;;;;;;4982403;28;20446;-69
2022/01/02 03:43:35;;;;;;;9.27;7.93;;;8.20;99.90;;;;;;4982481;28;20503;-68
2022/01/02 03:46:04;;;;;;;9.97;7.20;;;8.00;99.90;;;;;;4980599;28;20592;-69
2022/01/02 03:48:31;;;;;;;9.10;7.37;;;8.00;99.90;;;;;;4984227;28;20699;-69
2022/01/02 03:50:57;;;;;;;8.60;7.27;;;8.00;99.90;;;;;;4982372;28;20819;-69
2022/01/02 03:53:23;;;;;;;10.00;7.10;;;8.00;99.90;;;;;;4981358;28;20428;-69
2022/01/02 03:55:48;;;;;;;9.87;8.23;;;8.10;99.90;;;;;;4981008;28;20197;-69
2022/01/02 03:58:14;;;;;;;11.23;7.90;;;8.00;99.90;;;;;;4983656;28;20192;-69
2022/01/02 04:00:40;;;;;;;7.77;7.00;;;8.20;99.90;;;;;;4984057;28;20200;-69
2022/01/02 04:03:05;;;;;;;7.50;6.50;;;8.20;99.90;;;;;;4981004;28;20662;-68
2022/01/02 04:05:31;;;;;;;8.50;6.10;;;8.40;99.90;;;;;;4983252;28;20212;-69
2022/01/02 04:07:56;;;;;;;9.00;7.03;;;8.30;99.90;;;;;;4966388;28;20202;-69
2022/01/02 04:10:22;;;;;;;12.27;7.57;;;8.20;99.90;;;;;;4982193;28;20221;-69
2022/01/02 04:12:48;;;;;;;8.40;7.50;;;8.10;99.90;;;;;;4982569;28;20217;-69
2022/01/02 04:15:14;;;;;;;8.70;7.23;;;8.20;99.90;;;;;;4982005;28;20205;-69
2022/01/02 04:17:41;;;;;;;10.73;8.33;;;8.20;99.90;;;;;;4980291;28;20249;-68
2022/01/02 04:20:10;;;;;;;11.90;7.73;;;8.20;99.90;;;;;;4979673;28;20549;-69
2022/01/02 04:22:35;;;;;;;10.73;7.87;;;8.30;99.90;;;;;;4982964;28;20528;-68
2022/01/02 04:25:02;;;;;;;9.73;7.50;;;8.30;99.90;;;;;;4979394;28;20908;-69
2022/01/02 04:27:28;;;;;;;10.87;9.00;;;8.40;99.90;;;;;;4976436;28;20655;-68
2022/01/02 04:29:54;;;;;;;10.17;7.77;;;8.50;99.90;;;;;;4983737;28;20473;-68
2022/01/02 04:32:20;;;;;;;9.93;7.50;;;8.70;99.90;;;;;;4980576;28;20510;-69
2022/01/02 04:34:46;;;;;;;10.47;8.27;;;8.80;99.90;;;;;;4979698;28;20217;-69
2022/01/02 04:37:12;;;;;;;11.03;8.30;;;8.80;99.90;;;;;;4982620;28;20651;-69
2022/01/02 04:39:38;;;;;;;10.63;8.23;;;8.70;99.90;;;;;;4982673;28;20224;-69
2022/01/02 04:42:05;;;;;;;11.90;8.67;;;8.70;99.90;;;;;;4984974;28;20507;-70
2022/01/02 04:44:30;;;;;;;10.23;8.20;;;8.90;99.90;;;;;;4983207;28;20555;-69
2022/01/02 04:46:56;;;;;;;10.93;7.70;;;8.90;99.90;;;;;;4984402;28;20879;-69
2022/01/02 04:49:22;;;;;;;10.43;8.40;;;9.10;99.90;;;;;;4978065;28;20186;-69
2022/01/02 04:51:48;;;;;;;10.30;8.10;;;8.80;99.90;;;;;;4978735;28;20825;-68
2022/01/02 04:54:14;;;;;;;10.73;8.13;;;8.80;99.90;;;;;;4980982;28;20260;-69
2022/01/02 04:56:40;;;;;;;11.50;7.70;;;8.90;99.90;;;;;;4981671;28;20710;-69
2022/01/02 04:59:06;;;;;;;9.37;6.80;;;9.00;99.90;;;;;;4979913;28;20860;-68
2022/01/02 05:01:32;;;;;;;9.43;7.00;;;8.80;99.90;;;;;;4976718;28;20448;-68
2022/01/02 05:03:57;;;;;;;8.67;7.17;;;8.60;99.90;;;;;;4979606;28;20497;-68
2022/01/02 05:06:23;;;;;;;12.10;6.73;;;8.80;99.90;;;;;;4982732;28;20210;-69
2022/01/02 05:08:48;;;;;;;8.67;7.20;;;8.80;99.90;;;;;;4979178;28;20202;-69
2022/01/02 05:11:14;;;;;;;7.83;6.43;;;8.70;99.90;;;;;;4981903;28;20506;-69
2022/01/02 05:13:40;;;;;;;12.80;7.03;;;8.60;99.90;;;;;;4980517;28;20196;-69
2022/01/02 05:16:06;;;;;;;8.53;6.10;;;8.70;99.90;;;;;;4980167;28;20610;-69
2022/01/02 05:18:32;;;;;;;11.30;6.93;;;8.60;99.90;;;;;;4980068;28;20882;-68
2022/01/02 05:20:58;;;;;;;9.90;6.37;;;8.50;99.90;;;;;;4983070;28;20531;-69
2022/01/02 05:23:23;;;;;;;8.70;6.40;;;8.60;99.90;;;;;;4986523;28;20373;-69
2022/01/02 05:25:49;;;;;;;9.70;6.73;;;8.90;99.90;;;;;;4984219;28;20618;-69
2022/01/02 05:28:15;;;;;;;11.00;6.40;;;9.00;99.90;;;;;;4987497;28;20216;-69
2022/01/02 05:30:41;;;;;;;5.67;5.00;;;8.90;99.90;;;;;;4982883;28;20666;-69
2022/01/02 05:33:08;;;;;;;7.30;5.90;;;9.00;99.90;;;;;;4983221;28;20586;-69
2022/01/02 05:35:34;;;;;;;9.40;5.67;;;8.90;99.90;;;;;;4984011;28;20866;-69
2022/01/02 05:38:01;;;;;;;7.07;6.03;;;8.90;99.90;;;;;;4986796;28;20430;-69
2022/01/02 05:40:34;;;;;;;8.50;6.43;;;9.00;99.90;;;;;;4985915;28;20425;-69
2022/01/02 05:43:04;;;;;;;9.20;6.30;;;8.90;99.90;;;;;;4983814;28;20487;-69
2022/01/02 05:45:30;;;;;;;6.90;5.27;;;9.00;99.90;;;;;;4984388;28;20557;-69
2022/01/02 05:47:56;;;;;;;6.40;5.57;;;9.10;99.90;;;;;;4984851;28;20444;-69
2022/01/02 05:50:22;;;;;;;7.83;5.67;;;8.80;99.90;;;;;;4984372;28;20484;-69
2022/01/02 05:52:48;;;;;;;6.70;5.50;;;8.60;99.90;;;;;;4984760;28;20451;-69
2022/01/02 05:55:14;;;;;;;7.50;5.80;;;8.50;99.90;;;;;;4983501;28;20456;-69
2022/01/02 05:57:39;;;;;;;7.37;5.50;;;8.60;99.90;;;;;;4984777;28;20432;-69
2022/01/02 06:00:07;;;;;;;6.77;5.57;;;8.80;99.90;;;;;;4982716;28;20186;-69
2022/01/02 06:02:33;;;;;;;16.37;5.50;;;8.80;99.90;;;;;;4983800;28;20185;-69
2022/01/02 06:04:59;;;;;;;5.30;4.50;;;8.90;99.90;;;;;;4984448;28;20475;-69
2022/01/02 06:07:24;;;;;;;6.30;4.90;;;8.90;99.90;;;;;;4980668;28;20541;-69
2022/01/02 06:09:50;;;;;;;7.20;5.67;;;9.00;99.90;;;;;;4985823;28;20487;-69
2022/01/02 06:12:16;;;;;;;9.17;5.47;;;8.90;99.90;;;;;;4983693;28;20185;-69
2022/01/02 06:14:42;;;;;;;6.87;5.13;;;8.70;99.90;;;;;;4983719;28;20288;-69
2022/01/02 06:17:07;;;;;;;5.83;5.20;;;8.80;99.90;;;;;;4984514;28;20201;-69
2022/01/02 06:19:33;;;;;;;6.70;5.17;;;8.90;99.90;;;;;;4986387;28;20197;-69
2022/01/02 06:22:00;;;;;;;5.70;4.67;;;8.80;99.90;;;;;;4984889;28;20189;-69
2022/01/02 06:24:26;;;;;;;6.20;5.30;;;8.80;99.90;;;;;;4981716;28;20579;-69
2022/01/02 06:26:52;;;;;;;6.20;5.53;;;8.80;99.90;;;;;;4982724;28;20433;-69
2022/01/02 06:29:17;;;;;;;8.07;6.83;;;8.90;99.90;;;;;;4982318;28;20186;-69
2022/01/02 06:31:43;;;;;;;7.27;5.70;;;8.80;99.90;;;;;;4981956;28;20585;-69
2022/01/02 06:34:08;;;;;;;6.90;5.50;;;9.00;99.90;;;;;;4981798;28;20193;-68
2022/01/02 06:36:34;;;;;;;6.67;5.73;;;9.20;99.90;;;;;;4983431;28;20711;-69
2022/01/02 06:39:00;;;;;;;8.60;5.37;;;9.30;99.90;;;;;;4982766;28;20188;-68
2022/01/02 06:41:25;;;;;;;6.13;5.50;;;8.90;99.90;;;;;;4981841;28;20624;-68
2022/01/02 06:43:52;;;;;;;7.47;5.87;;;8.70;99.90;;;;;;4983585;28;20185;-69
2022/01/02 06:46:21;;;;;;;11.00;6.40;;;8.60;99.90;;;;;;4983420;28;20202;-69
2022/01/02 06:48:47;;;;;;;9.47;5.63;;;8.80;99.90;;;;;;4982452;28;20443;-69
2022/01/02 06:51:13;;;;;;;7.90;5.23;;;8.80;99.90;;;;;;4965851;28;21041;-69
2022/01/02 06:53:38;;;;;;;6.63;5.80;;;8.70;99.90;;;;;;4983062;28;20475;-69
2022/01/02 06:56:04;;;;;;;6.50;5.83;;;8.60;99.90;;;;;;4981748;28;20583;-69
2022/01/02 06:58:30;;;;;;;7.70;6.47;;;8.70;99.90;;;;;;4983019;28;20201;-69
2022/01/02 07:00:56;;;;;;;7.60;6.00;;;8.60;99.90;;;;;;4982909;28;20565;-69
2022/01/02 07:03:24;;;;;;;9.30;6.73;;;8.50;99.90;;;;;;4970118;28;20966;-68
2022/01/02 07:05:50;;;;;;;6.53;5.00;;;8.60;99.90;;;;;;4984216;28;20523;-68
2022/01/02 07:08:18;;;;;;;6.63;5.60;;;8.70;99.90;;;;;;4985691;28;20444;-68
2022/01/02 07:10:43;;;;;;;7.00;5.73;;;8.70;99.90;;;;;;4981074;28;20219;-68
2022/01/02 07:13:09;;;;;;;7.70;6.33;;;8.40;99.90;;;;;;4983864;28;20889;-68
2022/01/02 07:15:34;;;;;;;5.97;5.37;;;8.40;99.90;;;;;;4966987;28;20206;-68
2022/01/02 07:18:00;;;;;;;5.87;5.20;;;8.40;99.90;;;;;;4980086;28;20699;-68
2022/01/02 07:20:26;;;;;;;6.83;5.57;;;8.30;99.90;;;;;;4985721;28;20186;-68
2022/01/02 07:22:52;;;;;;;6.43;5.50;;;8.30;99.90;;;;;;4983491;28;20440;-69
2022/01/02 07:25:18;;;;;;;6.40;5.77;;;8.50;99.90;;;;;;4981429;28;20308;-69
2022/01/02 07:27:43;;;;;;;6.57;5.33;;;8.40;99.90;;;;;;4982535;28;20564;-69
2022/01/02 07:30:10;;;;;;;7.10;6.40;;;8.40;99.90;;;;;;4983741;28;20729;-70
2022/01/02 07:32:37;;;;;;;6.77;5.67;;;8.40;99.90;;;;;;4984027;28;20185;-69
2022/01/02 07:35:06;;;;;;;8.40;5.83;;;8.30;99.90;;;;;;4981283;28;20476;-70
2022/01/02 07:37:35;;;;;;;7.73;5.40;;;8.30;99.90;;;;;;4978381;28;20524;-68
2022/01/02 07:40:02;;;;;;;7.73;6.40;;;8.40;99.90;;;;;;4984011;28;20441;-68
2022/01/02 07:42:28;;;;;;;7.37;6.13;;;8.40;99.90;;;;;;4982809;28;20433;-69
2022/01/02 07:44:53;;;;;;;8.60;6.97;;;8.50;99.90;;;;;;4981628;28;20552;-69
2022/01/02 07:47:19;;;;;;;7.53;6.27;;;8.20;99.90;;;;;;4979471;28;20189;-69
2022/01/02 07:49:45;;;;;;;13.53;6.50;;;8.10;99.90;;;;;;4983249;28;20189;-69
2022/01/02 07:52:10;;;;;;;8.63;6.70;;;8.10;99.90;;;;;;4982686;28;20599;-69
2022/01/02 07:54:37;;;;;;;9.13;6.03;;;8.20;99.90;;;;;;4981739;28;20293;-69
2022/01/02 07:57:03;;;;;;;10.40;6.83;;;8.20;99.90;;;;;;4982397;28;20174;-69
2022/01/02 07:59:29;;;;;;;9.33;6.47;;;8.20;99.90;;;;;;4981867;28;20453;-69
2022/01/02 08:01:54;;;;;;;9.30;7.20;;;8.40;99.90;;;;;;4983605;28;20213;-69
2022/01/02 08:04:26;;;;;;;10.20;6.97;;;8.40;99.90;;;;;;5039884;28;20568;-68
2022/01/02 08:06:52;;;;;;;8.23;5.90;;;8.50;99.90;;;;;;5029766;28;20510;-69
2022/01/02 08:09:17;;;;;;;8.30;6.27;;;8.50;99.90;;;;;;5032326;28;20214;-69
2022/01/02 08:11:43;;;;;;;10.10;7.10;;;8.50;99.90;;;;;;5024695;28;20587;-69
2022/01/02 08:14:08;;;;;;;9.43;6.60;;;8.40;99.90;;;;;;5040723;28;20213;-69
2022/01/02 08:16:34;;;;;;;10.67;6.97;;;8.20;99.90;;;;;;5034244;28;20196;-69
2022/01/02 08:19:01;;;;;;;8.10;6.57;;;8.20;99.90;;;;;;5028947;28;20211;-70
2022/01/02 08:21:26;;;;;;;9.63;7.53;;;8.30;99.90;;;;;;5033219;28;20464;-70
2022/01/02 08:23:52;;;;;;;8.97;7.50;;;8.40;99.90;;;;;;5031732;28;20783;-68
2022/01/02 08:26:18;;;;;;;8.40;6.10;;;8.40;99.90;;;;;;5034076;28;20250;-68
2022/01/02 08:28:43;;;;;;;11.00;7.10;;;8.50;99.90;;;;;;5033036;28;20304;-68
2022/01/02 08:31:09;;;;;;;9.00;7.40;;;8.30;99.90;;;;;;5031504;28;20191;-69
2022/01/02 08:33:34;;;;;;;12.27;8.40;;;8.20;99.90;;;;;;5031754;28;20209;-69
2022/01/02 08:36:00;;;;;;;10.83;7.83;;;8.40;99.90;;;;;;5031903;28;20216;-70
2022/01/02 08:38:28;;;;;;;9.33;7.97;;;8.40;99.90;;;;;;5028804;28;20222;-69
2022/01/02 08:40:54;;;;;;;10.97;8.00;;;8.40;99.90;;;;;;5034100;28;20184;-69
2022/01/02 08:43:20;;;;;;;12.70;8.90;;;8.20;99.90;;;;;;5032288;28;20553;-69
2022/01/02 08:45:45;;;;;;;10.20;8.07;;;8.30;99.90;;;;;;5030227;28;20513;-68
2022/01/02 08:48:11;;;;;;;13.60;9.57;;;8.30;99.90;;;;;;5030965;28;20517;-68
2022/01/02 08:50:36;;;;;;;13.67;10.07;;;8.30;99.90;;;;;;5030849;28;20274;-69
2022/01/02 08:53:02;;;;;;;13.57;9.33;;;8.30;99.90;;;;;;5033426;28;20216;-68
2022/01/02 08:55:28;;;;;;;10.83;8.27;;;8.50;99.90;;;;;;5031717;28;20220;-69
2022/01/02 08:57:53;;;;;;;11.43;9.07;;;8.60;99.90;;;;;;5028180;28;20208;-68
2022/01/02 09:00:19;;;;;;;11.57;9.07;;;8.60;99.90;;;;;;5030974;28;20609;-69
2022/01/02 09:02:45;;;;;;;13.50;9.20;;;8.40;99.90;;;;;;5031451;28;20203;-69
2022/01/02 09:05:10;;;;;;;12.07;9.53;;;8.60;99.90;;;;;;5033527;28;20220;-69
2022/01/02 09:07:36;;;;;;;16.70;11.20;;;8.70;99.90;;;;;;5033903;28;20192;-69
2022/01/02 09:10:03;;;;;;;15.37;10.40;;;8.70;99.90;;;;;;5031307;28;20184;-69
2022/01/02 09:12:28;;;;;;;16.00;12.10;;;8.70;99.90;;;;;;5033961;28;20204;-68
2022/01/02 09:14:54;;;;;;;14.50;11.03;;;8.70;99.90;;;;;;5022285;28;20953;-69
2022/01/02 09:17:20;;;;;;;13.57;11.40;;;8.70;99.90;;;;;;5013321;28;20184;-69
2022/01/02 09:19:45;;;;;;;12.67;10.27;;;8.70;99.90;;;;;;5016067;28;20611;-69
2022/01/02 09:22:11;;;;;;;15.63;10.57;;;8.90;99.90;;;;;;5021879;28;20666;-69
2022/01/02 09:24:36;;;;;;;14.60;9.93;;;8.90;99.90;;;;;;5017874;28;20291;-69
2022/01/02 09:27:02;;;;;;;13.80;10.57;;;8.80;99.90;;;;;;5016401;28;20570;-68
2022/01/02 09:29:28;;;;;;;13.30;10.83;;;8.90;99.90;;;;;;5018754;28;20181;-70
2022/01/02 09:31:54;;;;;;;16.77;11.23;;;9.00;99.90;;;;;;5019062;28;20189;-69
2022/01/02 09:34:19;;;;;;;19.43;11.30;;;9.00;99.90;;;;;;5014910;28;20620;-69
2022/01/02 09:36:45;;;;;;;15.47;10.33;;;8.90;99.90;;;;;;5018536;28;20292;-69
2022/01/02 09:39:11;;;;;;;14.27;10.13;;;8.90;99.90;;;;;;5012374;28;20185;-69
2022/01/02 09:41:39;;;;;;;13.77;10.33;;;8.90;99.90;;;;;;5014518;28;20215;-68
2022/01/02 09:44:05;;;;;;;14.03;9.70;;;9.00;99.90;;;;;;5019832;28;20193;-68
2022/01/02 09:46:32;;;;;;;16.50;11.53;;;9.00;99.90;;;;;;5015238;28;20483;-68
2022/01/02 09:48:57;;;;;;;15.43;10.40;;;8.90;99.90;;;;;;5013992;28;20466;-69
2022/01/02 09:51:26;;;;;;;13.60;10.20;;;8.80;99.90;;;;;;5017255;28;20818;-70
2022/01/02 09:53:53;;;;;;;12.67;9.90;;;8.80;99.90;;;;;;5015925;28;20220;-70
2022/01/02 09:56:19;;;;;;;15.53;11.00;;;8.90;99.90;;;;;;5008753;28;20461;-69
2022/01/02 09:58:45;;;;;;;14.00;10.60;;;8.90;99.90;;;;;;5015380;28;20435;-69
2022/01/02 10:01:18;;;;;;;14.93;10.43;;;8.80;99.90;;;;;;5016162;28;20430;-69
2022/01/02 10:03:51;;;;;;;11.70;9.50;;;8.80;99.90;;;;;;5017933;28;20206;-69
2022/01/02 10:06:18;;;;;;;13.70;10.27;;;8.80;99.90;;;;;;5014007;28;20472;-69
2022/01/02 10:08:44;;;;;;;11.97;9.20;;;8.80;99.90;;;;;;5013479;28;20428;-69
2022/01/02 10:11:23;;;;;;;13.77;9.37;;;8.80;99.90;;;;;;5012996;28;20443;-70
2022/01/02 10:13:54;;;;;;;11.77;9.37;;;8.80;99.90;;;;;;5009292;28;20473;-70
2022/01/02 10:16:34;;;;;;;11.23;8.90;;;8.80;99.90;;;;;;5007019;28;20440;-69
2022/01/02 10:19:16;;;;;;;14.60;8.50;;;8.90;99.90;;;;;;5014895;28;20453;-69
2022/01/02 10:21:42;;;;;;;13.47;9.30;;;8.80;99.90;;;;;;5018677;28;21012;-69
2022/01/02 10:24:21;;;;;;;12.87;9.80;;;8.80;99.90;;;;;;5016198;28;20518;-67
2022/01/02 10:27:13;;;;;;;13.50;9.10;;;8.80;99.90;;;;;;5015317;28;20334;-69
2022/01/02 10:29:44;;;;;;;11.60;7.87;;;8.90;99.90;;;;;;5010869;28;20454;-70
2022/01/02 10:32:26;;;;;;;13.73;8.67;;;9.10;99.90;;;;;;5014889;28;20451;-70
2022/01/02 10:34:53;;;;;;;10.77;8.03;;;9.00;99.90;;;;;;5016382;28;21028;-69
2022/01/02 10:37:23;;;;;;;14.07;10.17;;;9.10;99.90;;;;;;5014536;28;20441;-69
2022/01/02 10:39:49;;;;;;;12.67;8.90;;;9.10;99.90;;;;;;5010151;28;20847;-70
2022/01/02 10:42:17;;;;;;;16.07;9.30;;;9.10;99.90;;;;;;5013996;28;20492;-69
2022/01/02 10:44:42;;;;;;;15.60;9.73;;;9.10;99.90;;;;;;5017063;28;20279;-70
2022/01/02 10:47:15;;;;;;;13.33;10.33;;;9.10;99.90;;;;;;5016036;28;20719;-70
2022/01/02 10:50:04;;;;;;;15.83;9.70;;;9.00;99.90;;;;;;5017784;28;20187;-70
2022/01/02 10:52:48;;;;;;;15.73;9.47;;;9.20;99.90;;;;;;5020517;28;20477;-69
2022/01/02 10:55:17;;;;;;;13.57;8.90;;;9.20;99.90;;;;;;5014531;28;20466;-70
2022/01/02 10:57:47;;;;;;;12.67;9.37;;;9.20;99.90;;;;;;5015954;28;20444;-69
2022/01/02 11:00:14;;;;;;;15.43;9.53;;;9.40;99.90;;;;;;5013743;28;21016;-69
2022/01/02 11:02:40;;;;;;;14.00;9.37;;;9.50;99.90;;;;;;5014120;28;20454;-69
2022/01/02 11:05:08;;;;;;;15.50;9.27;;;9.50;99.90;;;;;;5014537;28;20949;-69
2022/01/02 11:07:39;;;;;;;10.43;8.63;;;9.40;99.90;;;;;;5014776;28;20850;-69
2022/01/02 11:10:05;;;;;;;13.03;9.23;;;9.50;99.90;;;;;;5013555;28;20432;-68
2022/01/02 11:12:32;;;;;;;11.97;8.93;;;9.50;99.90;;;;;;5012815;28;20553;-67
2022/01/02 11:14:58;;;;;;;10.43;8.10;;;9.60;99.90;;;;;;5014059;28;20545;-67
2022/01/02 11:17:24;;;;;;;10.10;8.07;;;9.70;99.90;;;;;;5018478;28;20939;-67
2022/01/02 11:19:50;;;;;;;8.83;7.80;;;9.70;99.90;;;;;;5004020;28;20440;-66
2022/01/02 11:22:33;;;;;;;10.53;8.27;;;9.70;99.90;;;;;;5015666;28;20489;-66
2022/01/02 11:25:07;;;;;;;11.90;7.30;;;9.70;99.90;;;;;;5014806;28;20212;-66
2022/01/02 11:27:49;;;;;;;10.50;7.30;;;9.80;99.90;;;;;;5011750;28;20424;-67
2022/01/02 11:30:30;;;;;;;9.33;7.47;;;9.80;99.90;;;;;;5006157;28;20446;-68
2022/01/02 11:33:06;;;;;;;8.53;6.97;;;9.80;99.90;;;;;;5013700;28;20514;-68
2022/01/02 11:35:35;;;;;;;11.30;7.23;;;9.90;99.90;;;;;;5008806;28;20444;-69
2022/01/02 11:38:03;;;;;;;8.30;5.90;;;10.00;99.90;;;;;;5015811;28;20503;-68
2022/01/02 11:40:50;;;;;;;10.87;6.80;;;10.10;99.90;;;;;;5012530;28;20462;-68
2022/01/02 11:43:48;;;;;;;7.93;5.83;;;10.30;99.90;;;;;;5017661;28;20500;-69
2022/01/02 11:46:20;;;;;;;10.50;6.83;;;10.40;99.90;;;;;;5013201;28;20565;-61
2022/01/02 11:49:16;;;;;;;10.10;7.30;;;10.50;99.90;;;;;;5009836;28;20550;-68
2022/01/02 11:51:47;;;;;;;8.40;6.17;;;10.60;99.90;;;;;;5004899;28;20435;-67
2022/01/02 11:54:31;;;;;;;7.10;6.30;;;10.70;99.90;;;;;;5015760;28;21011;-66
2022/01/02 11:56:57;;;;;;;6.93;5.30;;;10.90;99.90;;;;;;5003241;28;20427;-66
2022/01/02 11:59:56;;;;;;;7.17;5.60;;;11.10;99.90;;;;;;5012972;28;20515;-66
2022/01/02 12:02:23;;;;;;;9.30;6.00;;;11.30;99.90;;;;;;4989500;28;20200;-66
2022/01/02 12:12:57;;;;;;;5.17;4.20;;;12.00;99.90;;;;;;5008297;28;20554;-64
2022/01/02 12:15:43;;;;;;;4.27;3.80;;;12.10;99.90;;;;;;5013242;28;20553;-64
2022/01/02 12:18:16;;;;;;;4.30;3.70;;;12.30;99.90;;;;;;5012742;28;20785;-65
2022/01/02 12:20:51;;;;;;;3.70;3.33;;;12.50;99.90;;;;;;5012778;28;20428;-64
2022/01/02 12:23:35;;;;;;;4.70;3.77;;;12.60;99.90;;;;;;5016086;28;20812;-64
2022/01/02 12:26:11;;;;;;;4.60;3.43;;;12.70;99.90;;;;;;4991864;28;20849;-63
2022/01/02 12:28:41;;;;;;;3.30;2.90;;;12.70;99.90;;;;;;4998953;28;20598;-64
2022/01/02 12:31:11;;;;;;;4.53;3.60;;;12.60;99.90;;;;;;5012834;28;20816;-64
2022/01/02 12:33:37;;;;;;;4.40;3.90;;;12.60;99.90;;;;;;5002352;28;20521;-64
2022/01/02 12:36:17;;;;;;;3.77;3.40;;;12.70;99.90;;;;;;4991038;28;20462;-64
2022/01/02 12:38:51;;;;;;;3.43;2.80;;;12.80;99.90;;;;;;5006230;28;20779;-64
2022/01/02 12:41:19;;;;;;;4.83;3.57;;;12.80;99.90;;;;;;5010671;28;21114;-64
2022/01/02 12:43:58;;;;;;;6.97;5.10;;;12.90;99.90;;;;;;5010146;28;20782;-64
2022/01/02 12:46:43;;;;;;;3.50;2.80;;;13.10;99.90;;;;;;5012150;28;20520;-64
2022/01/02 12:49:16;;;;;;;4.40;2.63;;;13.30;99.90;;;;;;5013143;28;20442;-64
2022/01/02 12:51:48;;;;;;;4.23;3.57;;;13.30;99.90;;;;;;5018168;28;20932;-64
2022/01/02 12:54:16;;;;;;;3.20;2.90;;;13.30;99.90;;;;;;5018053;28;21905;-64
2022/01/02 12:56:42;;;;;;;4.87;3.63;;;13.40;99.90;;;;;;5017965;28;20889;-64
2022/01/02 12:59:22;;;;;;;7.10;3.37;;;13.50;99.90;;;;;;5017234;28;20494;-64
2022/01/02 13:02:06;;;;;;;3.67;3.27;;;13.40;99.90;;;;;;5015865;28;20618;-64
2022/01/02 13:04:39;;;;;;;3.50;3.20;;;13.30;99.90;;;;;;5015625;28;21169;-64
2022/01/02 13:07:14;;;;;;;5.10;4.17;;;13.30;99.90;;;;;;5015826;28;20442;-64
2022/01/02 13:09:43;;;;;;;5.27;4.63;;;13.20;99.90;;;;;;5016873;28;20474;-64